map of QMJ home
QMJ - Airport
Location
City:  Masjed Soleiman, Khuzestan, Iran
Name:Shahid Asyaee
ICAO:OIAI
IATA:QMJ

Details
Type:Airport (Aerodrome, Airfield)
Use:Military
Latitude:3200'09"N (32.002372)
Longitude:4916'13"E (49.270364)
Datum:WGS 1984
Elevation:1206 ft (368 m)
Variation:4.05E (WMM2015 magnetic declination)
0.06 annual change
Runways:2
Longest:5907 × 98 ft (1800 × 30 m), paved

Time
Time Zone:UTC+3:30 (DST+4:30)
Local Time:

Weather
METAR:OIAI 152250Z AUTO 00000KT //// // ////// 10/09 Q1022

Related Locations
Nearby:
Farthest:GMR: 11767 mi / 18938 km
Mangareva [Totegegie], Gambier Islands, PF

Find:

   beyond  
but within

Other Information
Maps:
NOTAMs:
Links:
Sources:

  
  • flag of Iran
  

Sectional Chart

Flight Planning
at skyvector.com

Satellite Image

Google Maps Satellite view

 

Copyright © 2004-2018 Karl L. Swartz. All rights reserved.
The Great Circle Mapper name and logo are trademarks of the Great Circle Mapper.
All other trademarks mentioned herein belong to their respective owners.
Please see credits for attibutions and further copyright information.

  Follow gcmap on Facebook Follow gcmap on Twitter Follow gcmap on Google+ GCmap on LinkedIn

hCard Microformat

Geo Microformat